Time;durP1;ratioP1;P1;durP2;ratioP2;P2;SDS_P1;SDS_P2;PMS_P1;PMS_P2;Temp;Humidity;BMP_temperature;BMP_pressure;BME280_temperature;BME280_humidity;BME280_pressure;Samples;Min_cycle;Max_cycle;Signal;HPM_P1;HPM_P2
2022/10/10 00:00:59;;;;;;;;;;;;;;;6.51;91.06;99328.72;8292011;28;19937;-76
2022/10/10 00:05:00;;;;;;;;;;;;;;;6.48;91.37;99333.84;8282913;28;19929;-76
2022/10/10 00:09:03;;;;;;;;;;;;;;;6.43;90.90;99335.47;8281785;28;20012;-76
2022/10/10 00:13:05;;;;;;;;;;;;;;;6.42;91.19;99333.75;8262490;28;19934;-76
2022/10/10 00:17:06;;;;;;;;;;;;;;;6.29;90.71;99344.81;8262505;28;19929;-76
2022/10/10 00:21:07;;;;;;;;;;;;;;;6.30;90.98;99337.09;8263831;28;20426;-76
2022/10/10 00:25:10;;;;;;;;;;;;;;;6.31;91.28;99333.66;8281412;28;19933;-76
2022/10/10 00:29:11;;;;;;;;;;;;;;;6.35;91.65;99338.00;8259703;28;19995;-76
2022/10/10 00:33:13;;;;;;;;;;;;;;;6.30;91.51;99334.50;8258874;28;20287;-76
2022/10/10 00:37:14;;;;;;;;;;;;;;;6.23;91.30;99337.84;8277078;28;19934;-76
2022/10/10 00:41:16;;;;;;;;;;;;;;;6.18;91.15;99336.06;8265697;28;20004;-76
2022/10/10 00:45:26;;;;;;;;;;;;;;;6.16;91.53;99335.19;8244245;28;20021;-73
2022/10/10 00:49:28;;;;;;;;;;;;;;;6.06;91.35;99335.06;8263428;28;20352;-76
2022/10/10 00:53:33;;;;;;;;;;;;;;;5.96;90.75;99334.94;8283050;28;20318;-76
2022/10/10 00:57:34;;;;;;;;;;;;;;;5.90;91.16;99327.09;8272307;28;19944;-74
2022/10/10 01:01:36;;;;;;;;;;;;;;;5.89;91.27;99335.63;8244658;28;19983;-74
2022/10/10 01:05:38;;;;;;;;;;;;;;;5.83;90.79;99325.25;8280585;28;19958;-74
2022/10/10 01:09:42;;;;;;;;;;;;;;;5.79;91.52;99316.63;8250685;28;20670;-74
2022/10/10 01:13:58;;;;;;;;;;;;;;;5.79;91.72;99326.94;8282812;28;19930;-76
2022/10/10 01:18:05;;;;;;;;;;;;;;;5.79;92.02;99316.63;8279824;28;19933;-76
2022/10/10 01:22:12;;;;;;;;;;;;;;;5.75;91.82;99314.88;8284036;28;19933;-76
2022/10/10 01:26:29;;;;;;;;;;;;;;;5.72;91.53;99317.38;8283466;28;19987;-76
2022/10/10 01:30:33;;;;;;;;;;;;;;;5.64;91.46;99319.00;8276612;28;19933;-76
2022/10/10 01:35:10;;;;;;;;;;;;;;;5.61;91.50;99319.81;8282632;28;19934;-76
2022/10/10 01:39:22;;;;;;;;;;;;;;;5.58;91.51;99308.63;8235530;28;20398;-76
2022/10/10 01:43:25;;;;;;;;;;;;;;;5.57;91.87;99314.63;8282057;28;19933;-76
2022/10/10 01:47:26;;;;;;;;;;;;;;;5.50;91.79;99310.19;8278350;28;19991;-76
2022/10/10 01:51:37;;;;;;;;;;;;;;;5.43;91.80;99315.28;8282110;28;19930;-75
2022/10/10 01:55:41;;;;;;;;;;;;;;;5.42;91.81;99304.94;8280662;28;19933;-77
2022/10/10 01:59:45;;;;;;;;;;;;;;;5.40;91.59;99293.78;8286250;28;19930;-76
2022/10/10 02:03:52;;;;;;;;;;;;;;;5.37;91.23;99296.28;8271091;28;19960;-75
2022/10/10 02:08:02;;;;;;;;;;;;;;;5.32;91.80;99301.38;8288540;28;20681;-76
2022/10/10 02:12:04;;;;;;;;;;;;;;;5.31;91.55;99296.19;8288927;28;19929;-76
2022/10/10 02:16:10;;;;;;;;;;;;;;;5.29;91.97;99295.31;8287945;28;20015;-76
2022/10/10 02:20:13;;;;;;;;;;;;;;;5.30;92.22;99299.63;8271514;28;20232;-76
2022/10/10 02:24:15;;;;;;;;;;;;;;;5.27;92.52;99291.84;8288276;28;19937;-76
2022/10/10 02:28:16;;;;;;;;;;;;;;;5.22;92.12;99293.50;8284920;28;19940;-76
2022/10/10 02:32:18;;;;;;;;;;;;;;;5.19;92.37;99281.41;8285448;28;19936;-76
2022/10/10 02:36:20;;;;;;;;;;;;;;;5.19;92.35;99276.28;8287778;28;19934;-76
2022/10/10 02:40:24;;;;;;;;;;;;;;;5.18;92.89;99282.25;8289268;28;19930;-76
2022/10/10 02:44:26;;;;;;;;;;;;;;;5.19;93.01;99272.84;8284621;28;19984;-75
2022/10/10 02:48:27;;;;;;;;;;;;;;;5.18;92.50;99271.97;8283993;28;19936;-76
2022/10/10 02:52:29;;;;;;;;;;;;;;;5.09;92.37;99270.13;8287798;28;20605;-76
2022/10/10 02:56:30;;;;;;;;;;;;;;;5.07;91.95;99278.69;8285020;28;19930;-75
2022/10/10 03:00:31;;;;;;;;;;;;;;;5.06;92.19;99277.81;8267503;28;19988;-76
2022/10/10 03:04:34;;;;;;;;;;;;;;;5.05;92.21;99281.22;8287479;28;19952;-76
2022/10/10 03:08:38;;;;;;;;;;;;;;;5.09;92.49;99280.44;8286527;28;20612;-76
2022/10/10 03:12:39;;;;;;;;;;;;;;;5.09;92.70;99285.56;8287992;28;19929;-76
2022/10/10 03:16:41;;;;;;;;;;;;;;;5.09;92.53;99289.84;8284394;28;19937;-76
2022/10/10 03:20:44;;;;;;;;;;;;;;;5.09;92.51;99288.16;8265187;28;19948;-74
2022/10/10 03:24:46;;;;;;;;;;;;;;;5.06;92.46;99292.38;8273287;28;20121;-74
2022/10/10 03:28:47;;;;;;;;;;;;;;;5.07;92.12;99283.81;8287219;28;20564;-74
2022/10/10 03:32:48;;;;;;;;;;;;;;;5.01;92.00;99289.72;8265971;28;20310;-76
2022/10/10 03:36:51;;;;;;;;;;;;;;;4.96;92.09;99287.91;8255554;28;20538;-76
2022/10/10 03:40:52;;;;;;;;;;;;;;;4.95;92.41;99288.75;8242634;28;19930;-74
2022/10/10 03:44:53;;;;;;;;;;;;;;;4.96;92.24;99287.91;8254374;28;19981;-73
2022/10/10 03:48:55;;;;;;;;;;;;;;;4.95;92.36;99292.19;8267063;28;20265;-76
2022/10/10 03:52:56;;;;;;;;;;;;;;;4.85;92.11;99280.03;8255418;28;20004;-76
2022/10/10 03:56:57;;;;;;;;;;;;;;;4.82;92.01;99296.25;8231133;28;20415;-76
2022/10/10 04:01:00;;;;;;;;;;;;;;;4.80;92.03;99294.50;8274107;28;19929;-75
2022/10/10 04:05:02;;;;;;;;;;;;;;;4.77;91.97;99299.63;8252075;28;20274;-75
2022/10/10 04:09:05;;;;;;;;;;;;;;;4.78;92.67;99297.06;8247633;28;20370;-75
2022/10/10 04:13:06;;;;;;;;;;;;;;;4.79;92.95;99298.78;8260941;28;19930;-75
2022/10/10 04:17:08;;;;;;;;;;;;;;;4.79;92.89;99291.06;8253264;28;19930;-75
2022/10/10 04:21:10;;;;;;;;;;;;;;;4.77;92.60;99292.75;8275350;28;19930;-75
2022/10/10 04:25:11;;;;;;;;;;;;;;;4.78;93.08;99293.63;8263895;28;19930;-75
2022/10/10 04:29:12;;;;;;;;;;;;;;;4.78;92.98;99283.34;8285252;28;19996;-75
2022/10/10 04:33:14;;;;;;;;;;;;;;;4.75;92.96;99284.16;8248474;28;19930;-75
2022/10/10 04:37:15;;;;;;;;;;;;;;;4.72;93.06;99280.66;8255991;28;19941;-76
2022/10/10 04:41:17;;;;;;;;;;;;;;;4.67;92.55;99290.00;8272995;28;19976;-75
2022/10/10 04:45:18;;;;;;;;;;;;;;;4.64;92.65;99285.66;8281552;28;20637;-75
2022/10/10 04:49:19;;;;;;;;;;;;;;;4.63;92.28;99296.78;8254687;28;20433;-75
2022/10/10 04:53:21;;;;;;;;;;;;;;;4.61;92.41;99292.47;8265260;28;19981;-75
2022/10/10 04:57:22;;;;;;;;;;;;;;;4.58;92.41;99303.56;8251733;28;19930;-76
2022/10/10 05:01:23;;;;;;;;;;;;;;;4.50;92.19;99310.28;8277946;28;20012;-75
2022/10/10 05:05:25;;;;;;;;;;;;;;;4.50;92.72;99305.16;8257757;28;19929;-75
2022/10/10 05:09:26;;;;;;;;;;;;;;;4.51;92.83;99310.31;8260839;28;19991;-75
2022/10/10 05:13:27;;;;;;;;;;;;;;;4.50;92.42;99312.84;8254429;28;19930;-75
2022/10/10 05:17:29;;;;;;;;;;;;;;;4.45;92.98;99309.31;8252274;28;19930;-75
2022/10/10 05:21:30;;;;;;;;;;;;;;;4.43;92.75;99309.28;8282686;28;20422;-75
2022/10/10 05:25:31;;;;;;;;;;;;;;;4.42;93.05;99310.13;8273623;28;20042;-75
2022/10/10 05:29:33;;;;;;;;;;;;;;;4.42;92.94;99310.13;8283527;28;20378;-75
2022/10/10 05:33:34;;;;;;;;;;;;;;;4.38;92.62;99315.19;8277707;28;20282;-75
2022/10/10 05:37:35;;;;;;;;;;;;;;;4.40;92.62;99316.09;8256171;28;19933;-75
2022/10/10 05:41:37;;;;;;;;;;;;;;;4.33;92.59;99321.97;8292694;28;19939;-74
2022/10/10 05:45:39;;;;;;;;;;;;;;;4.33;92.77;99327.09;8259263;28;19933;-75
2022/10/10 05:49:40;;;;;;;;;;;;;;;4.34;93.18;99327.13;8270592;28;20040;-75
2022/10/10 05:53:41;;;;;;;;;;;;;;;4.32;92.98;99326.22;8281825;28;19930;-75
2022/10/10 05:57:43;;;;;;;;;;;;;;;4.30;93.12;99320.16;8297849;28;19929;-75
2022/10/10 06:01:44;;;;;;;;;;;;;;;4.30;93.13;99321.88;8278361;28;20363;-74
2022/10/10 06:05:49;;;;;;;;;;;;;;;4.24;92.66;99326.06;8283359;28;20232;-75
2022/10/10 06:09:50;;;;;;;;;;;;;;;4.27;93.00;99320.13;8270362;28;19929;-74
2022/10/10 06:13:53;;;;;;;;;;;;;;;4.33;93.37;99319.38;8286602;28;19933;-73
2022/10/10 06:17:54;;;;;;;;;;;;;;;4.42;93.65;99324.69;8275251;28;19929;-73
2022/10/10 06:21:56;;;;;;;;;;;;;;;4.49;93.51;99311.13;8289470;28;19933;-75
2022/10/10 06:25:57;;;;;;;;;;;;;;;4.52;93.49;99327.47;8271041;28;19937;-75
2022/10/10 06:29:58;;;;;;;;;;;;;;;4.65;93.94;99332.81;8281643;28;19979;-75
2022/10/10 06:34:00;;;;;;;;;;;;;;;4.76;94.07;99337.31;8281844;28;19929;-75
2022/10/10 06:38:01;;;;;;;;;;;;;;;4.91;93.70;99338.44;8281532;28;19929;-75
2022/10/10 06:42:03;;;;;;;;;;;;;;;5.07;93.61;99330.16;8265619;28;19929;-76
2022/10/10 06:46:04;;;;;;;;;;;;;;;5.23;94.13;99337.28;8283900;28;20658;-76
2022/10/10 06:50:06;;;;;;;;;;;;;;;5.39;93.49;99349.53;8287178;28;20370;-75
2022/10/10 06:54:07;;;;;;;;;;;;;;;5.54;92.77;99348.03;8274032;28;19929;-76
2022/10/10 06:58:08;;;;;;;;;;;;;;;5.69;93.22;99353.41;8284697;28;20634;-75
2022/10/10 07:02:12;;;;;;;;;;;;;;;5.86;92.62;99362.25;8284499;28;21288;-76
2022/10/10 07:06:14;;;;;;;;;;;;;;;6.16;92.56;99366.13;8260728;28;19988;-76
2022/10/10 07:10:16;;;;;;;;;;;;;;;6.48;92.33;99371.66;8283011;28;20487;-75
2022/10/10 07:14:17;;;;;;;;;;;;;;;6.85;91.25;99373.78;8276429;28;20577;-76
2022/10/10 07:18:19;;;;;;;;;;;;;;;7.20;90.52;99384.47;8284647;28;19933;-76
2022/10/10 07:22:20;;;;;;;;;;;;;;;7.58;89.86;99378.72;8298763;28;19937;-77
2022/10/10 07:26:25;;;;;;;;;;;;;;;7.98;88.66;99376.41;8294216;28;19930;-77
2022/10/10 07:30:27;;;;;;;;;;;;;;;8.36;86.98;99372.31;8265555;28;19929;-77
2022/10/10 07:34:28;;;;;;;;;;;;;;;8.74;85.17;99377.59;8275392;28;19940;-76
2022/10/10 07:38:29;;;;;;;;;;;;;;;9.01;83.16;99387.19;8294752;28;19979;-76
2022/10/10 07:42:30;;;;;;;;;;;;;;;9.27;82.60;99391.50;8291565;28;19929;-76
2022/10/10 07:46:32;;;;;;;;;;;;;;;9.65;81.78;99388.91;8258729;28;19930;-76
2022/10/10 07:50:33;;;;;;;;;;;;;;;10.00;80.25;99394.06;8291910;28;19929;-77
2022/10/10 07:54:34;;;;;;;;;;;;;;;10.44;79.04;99393.13;8287365;28;19995;-77
2022/10/10 07:58:36;;;;;;;;;;;;;;;10.75;78.02;99392.09;8277807;28;19933;-77
2022/10/10 08:02:37;;;;;;;;;;;;;;;11.04;77.31;99399.72;8270571;28;19933;-77
2022/10/10 08:06:38;;;;;;;;;;;;;;;11.41;77.42;99397.72;8266859;28;19930;-77
2022/10/10 08:10:43;;;;;;;;;;;;;;;11.78;77.67;99400.91;8270969;28;20385;-77
2022/10/10 08:14:45;;;;;;;;;;;;;;;12.21;77.03;99407.41;8286010;28;19930;-77
2022/10/10 08:18:46;;;;;;;;;;;;;;;12.54;75.89;99401.84;8283387;28;20031;-76
2022/10/10 08:22:47;;;;;;;;;;;;;;;12.91;75.20;99397.00;8268605;28;19984;-77
2022/10/10 08:26:50;;;;;;;;;;;;;;;13.29;75.36;99391.28;8283706;28;19955;-77
2022/10/10 08:30:51;;;;;;;;;;;;;;;13.63;74.70;99384.66;8271664;28;19936;-76
2022/10/10 08:34:52;;;;;;;;;;;;;;;13.88;73.59;99389.44;8289067;28;19930;-76
2022/10/10 08:38:58;;;;;;;;;;;;;;;14.14;73.06;99394.16;8273287;28;20278;-76
2022/10/10 08:43:02;;;;;;;;;;;;;;;14.35;72.17;99385.03;8288737;28;19933;-76
2022/10/10 08:47:04;;;;;;;;;;;;;;;14.45;72.82;99391.84;8284709;28;20442;-76
2022/10/10 08:51:11;;;;;;;;;;;;;;;14.54;72.52;99393.41;8258768;28;19933;-77
2022/10/10 08:55:18;;;;;;;;;;;;;;;14.85;72.39;99380.56;8265660;28;19929;-77
2022/10/10 08:59:22;;;;;;;;;;;;;;;15.26;71.86;99382.25;8267975;28;19940;-77
2022/10/10 09:03:23;;;;;;;;;;;;;;;15.43;70.35;99385.31;8267188;28;20004;-77
2022/10/10 09:07:33;;;;;;;;;;;;;;;15.76;70.50;99395.00;8279913;28;19929;-77
2022/10/10 09:11:39;;;;;;;;;;;;;;;16.11;70.50;99388.84;8267430;28;19939;-77
2022/10/10 09:15:44;;;;;;;;;;;;;;;16.38;69.85;99380.25;8287294;28;19987;-77
2022/10/10 09:20:04;;;;;;;;;;;;;;;16.28;70.02;99374.41;8271814;28;19983;-77
2022/10/10 09:24:05;;;;;;;;;;;;;;;16.52;70.89;99369.38;8271666;28;20282;-77
2022/10/10 09:28:14;;;;;;;;;;;;;;;16.74;69.13;99372.25;8269138;28;19983;-76
2022/10/10 09:32:23;;;;;;;;;;;;;;;16.91;69.29;99367.38;8263773;28;19941;-77
2022/10/10 09:36:27;;;;;;;;;;;;;;;17.07;68.77;99368.63;8280067;28;19930;-77
2022/10/10 09:40:33;;;;;;;;;;;;;;;17.27;68.44;99378.50;8292392;28;19930;-77
2022/10/10 09:44:34;;;;;;;;;;;;;;;17.50;68.02;99380.38;8282622;28;19933;-76
2022/10/10 09:48:37;;;;;;;;;;;;;;;17.75;67.60;99372.53;8250657;28;19940;-76
2022/10/10 09:52:38;;;;;;;;;;;;;;;17.88;67.16;99365.97;8263751;28;19929;-77
2022/10/10 09:56:52;;;;;;;;;;;;;;;17.97;66.36;99355.16;8261414;28;20334;-77
2022/10/10 10:00:53;;;;;;;;;;;;;;;18.07;66.23;99359.16;8276094;28;19933;-76
2022/10/10 10:04:55;;;;;;;;;;;;;;;18.16;66.10;99354.50;8249896;28;20033;-77
2022/10/10 10:08:59;;;;;;;;;;;;;;;18.31;65.64;99361.81;8266231;28;19940;-76
2022/10/10 10:13:00;;;;;;;;;;;;;;;18.39;66.23;99362.41;8263051;28;20326;-76
2022/10/10 10:17:10;;;;;;;;;;;;;;;18.49;65.77;99366.44;8282153;28;19930;-75
2022/10/10 10:21:16;;;;;;;;;;;;;;;18.59;65.85;99359.91;8275551;28;19929;-77
2022/10/10 10:25:31;;;;;;;;;;;;;;;18.76;65.36;99366.34;8276735;28;19955;-77
2022/10/10 10:29:32;;;;;;;;;;;;;;;18.99;64.99;99371.56;8293205;28;19934;-77
2022/10/10 10:34:09;;;;;;;;;;;;;;;19.02;64.13;99369.66;8275972;28;19951;-77
2022/10/10 10:38:29;;;;;;;;;;;;;;;19.12;64.61;99362.25;8225159;28;19930;-77
2022/10/10 10:42:49;;;;;;;;;;;;;;;19.13;64.56;99356.09;8311680;28;19932;-77
2022/10/10 10:47:08;;;;;;;;;;;;;;;19.23;63.79;99353.94;8278284;28;19933;-77
2022/10/10 10:51:16;;;;;;;;;;;;;;;19.35;64.07;99358.69;8282172;28;19937;-77
2022/10/10 10:55:40;;;;;;;;;;;;;;;19.51;64.70;99361.56;8279585;28;19960;-77
2022/10/10 10:59:42;;;;;;;;;;;;;;;19.64;64.03;99361.97;8294743;28;19939;-76
2022/10/10 11:04:11;;;;;;;;;;;;;;;19.63;63.00;99360.25;8276537;28;20418;-76
2022/10/10 11:09:01;;;;;;;;;;;;;;;19.79;63.83;99363.97;8274419;28;19929;-76
2022/10/10 11:13:09;;;;;;;;;;;;;;;19.94;63.19;99357.19;8260133;28;19956;-76
2022/10/10 11:17:10;;;;;;;;;;;;;;;20.05;63.55;99366.31;8253141;28;19996;-76
2022/10/10 11:21:33;;;;;;;;;;;;;;;20.07;62.71;99364.47;8289349;28;20267;-76
2022/10/10 11:25:43;;;;;;;;;;;;;;;20.15;62.21;99366.78;8287013;28;19983;-77
2022/10/10 11:29:50;;;;;;;;;;;;;;;20.21;61.86;99367.34;8276541;28;19929;-76
2022/10/10 11:34:27;;;;;;;;;;;;;;;20.34;62.25;99369.47;8267627;28;20016;-76
2022/10/10 11:38:28;;;;;;;;;;;;;;;20.43;60.29;99372.56;8231869;28;19929;-76
2022/10/10 11:42:36;;;;;;;;;;;;;;;20.56;59.97;99378.16;8285647;28;20251;-76
2022/10/10 11:46:56;;;;;;;;;;;;;;;20.55;58.26;99372.94;8280279;28;19940;-76
2022/10/10 11:51:03;;;;;;;;;;;;;;;20.45;57.87;99369.84;8294830;28;19937;-76
2022/10/10 11:55:07;;;;;;;;;;;;;;;20.58;59.00;99362.25;8267244;28;19948;-76
2022/10/10 11:59:30;;;;;;;;;;;;;;;20.74;57.84;99368.53;8301841;28;19933;-76
2022/10/10 12:03:31;;;;;;;;;;;;;;;20.91;58.48;99363.31;8280402;28;20007;-76
2022/10/10 12:07:59;;;;;;;;;;;;;;;21.02;57.55;99368.13;8272629;28;19929;-75
2022/10/10 12:12:03;;;;;;;;;;;;;;;21.21;55.64;99363.66;8237977;28;19956;-76
2022/10/10 12:16:09;;;;;;;;;;;;;;;21.27;56.40;99360.75;8283960;28;19929;-76
2022/10/10 12:20:14;;;;;;;;;;;;;;;21.29;56.08;99355.38;8267921;28;20590;-76
2022/10/10 12:24:15;;;;;;;;;;;;;;;21.26;56.86;99355.53;8281796;28;19937;-76
2022/10/10 12:28:17;;;;;;;;;;;;;;;21.27;56.40;99339.63;8284892;28;19929;-76
2022/10/10 12:32:21;;;;;;;;;;;;;;;21.33;56.52;99338.44;8280782;28;19979;-76
2022/10/10 12:36:23;;;;;;;;;;;;;;;21.41;56.73;99342.44;8282990;28;20320;-76
2022/10/10 12:40:24;;;;;;;;;;;;;;;21.45;56.14;99334.34;8284399;28;19930;-76
2022/10/10 12:44:44;;;;;;;;;;;;;;;21.46;57.33;99333.44;8253674;28;19929;-76
2022/10/10 12:48:55;;;;;;;;;;;;;;;21.36;57.42;99322.44;8279747;28;19929;-76
2022/10/10 12:52:59;;;;;;;;;;;;;;;21.28;58.13;99336.03;8286258;28;19987;-76
2022/10/10 12:57:12;;;;;;;;;;;;;;;21.27;58.62;99330.84;8282291;28;19930;-76
2022/10/10 13:01:23;;;;;;;;;;;;;;;21.30;58.70;99331.53;8246314;28;19935;-76
2022/10/10 13:05:26;;;;;;;;;;;;;;;21.25;58.16;99328.28;8297625;28;19933;-76
2022/10/10 13:09:32;;;;;;;;;;;;;;;21.16;58.66;99320.75;8267901;28;19988;-76
2022/10/10 13:13:36;;;;;;;;;;;;;;;21.28;60.33;99325.47;8284958;28;19929;-76
2022/10/10 13:17:40;;;;;;;;;;;;;;;21.30;60.31;99325.41;8282257;28;20739;-76
2022/10/10 13:21:41;;;;;;;;;;;;;;;21.30;59.47;99323.63;8273116;28;19940;-76
2022/10/10 13:25:44;;;;;;;;;;;;;;;21.32;60.13;99320.91;8271595;28;20302;-76
2022/10/10 13:29:45;;;;;;;;;;;;;;;21.36;59.71;99319.81;8267698;28;19930;-76
2022/10/10 13:33:47;;;;;;;;;;;;;;;21.35;59.31;99304.88;8292032;28;19929;-76
2022/10/10 13:37:53;;;;;;;;;;;;;;;21.21;60.37;99316.13;8262882;28;19933;-77
2022/10/10 13:41:55;;;;;;;;;;;;;;;20.97;60.96;99325.22;8281507;28;19929;-76
2022/10/10 13:45:58;;;;;;;;;;;;;;;20.87;61.73;99322.19;8281626;28;19991;-77
2022/10/10 13:50:00;;;;;;;;;;;;;;;20.89;62.59;99330.88;8277551;28;19929;-77
2022/10/10 13:54:01;;;;;;;;;;;;;;;20.85;62.71;99326.69;8276644;28;19940;-78
2022/10/10 13:58:05;;;;;;;;;;;;;;;20.76;62.70;99329.72;8281141;28;19937;-77
2022/10/10 14:02:11;;;;;;;;;;;;;;;20.62;63.53;99334.78;8293961;28;19929;-78
2022/10/10 14:06:18;;;;;;;;;;;;;;;20.41;67.35;99329.56;8283731;28;19987;-77
2022/10/10 14:10:24;;;;;;;;;;;;;;;20.26;70.84;99321.47;8288669;28;20412;-77
2022/10/10 14:14:31;;;;;;;;;;;;;;;20.29;73.48;99327.47;8274433;28;19930;-78
2022/10/10 14:18:32;;;;;;;;;;;;;;;20.28;75.04;99327.53;8284661;28;19979;-77
2022/10/10 14:22:34;;;;;;;;;;;;;;;20.30;75.67;99328.34;8275925;28;19929;-77
2022/10/10 14:26:35;;;;;;;;;;;;;;;20.25;76.32;99325.03;8287371;28;19930;-77
2022/10/10 14:30:37;;;;;;;;;;;;;;;20.22;70.76;99326.88;8288087;28;19929;-77
2022/10/10 14:34:38;;;;;;;;;;;;;;;20.22;71.64;99328.66;8261053;28;19999;-76
2022/10/10 14:38:40;;;;;;;;;;;;;;;20.20;69.91;99325.25;8273506;28;20350;-77
2022/10/10 14:42:41;;;;;;;;;;;;;;;20.17;71.51;99322.75;8287306;28;19929;-78
2022/10/10 14:46:42;;;;;;;;;;;;;;;20.12;72.79;99322.09;8296613;28;19929;-77
2022/10/10 14:50:45;;;;;;;;;;;;;;;20.06;71.96;99325.00;8267593;28;19929;-77
2022/10/10 14:54:47;;;;;;;;;;;;;;;20.10;71.35;99327.41;8265845;28;19961;-77
2022/10/10 14:58:49;;;;;;;;;;;;;;;20.19;70.25;99310.34;8293248;28;20609;-77
2022/10/10 15:02:50;;;;;;;;;;;;;;;20.22;71.28;99310.22;8277881;28;19929;-78
2022/10/10 15:06:52;;;;;;;;;;;;;;;20.19;71.11;99324.38;8258901;28;20274;-77
2022/10/10 15:11:14;;;;;;;;;;;;;;;20.11;71.02;99318.63;8284947;28;19940;-77
2022/10/10 15:15:16;;;;;;;;;;;;;;;19.98;72.05;99322.72;8266727;28;19988;-77
2022/10/10 15:19:17;;;;;;;;;;;;;;;19.90;73.36;99320.38;8286320;28;19960;-76
2022/10/10 15:23:18;;;;;;;;;;;;;;;19.84;73.50;99328.56;8287836;28;20620;-77
2022/10/10 15:27:19;;;;;;;;;;;;;;;19.71;74.82;99323.88;8277425;28;19929;-77
2022/10/10 15:31:29;;;;;;;;;;;;;;;19.59;75.19;99333.19;8269965;28;19939;-77
2022/10/10 15:35:30;;;;;;;;;;;;;;;19.42;75.76;99341.75;8265778;28;19930;-77
2022/10/10 15:39:51;;;;;;;;;;;;;;;19.31;76.55;99342.19;8254245;28;19940;-76
2022/10/10 15:43:53;;;;;;;;;;;;;;;19.20;78.05;99338.25;8220621;28;19956;-77
2022/10/10 15:47:54;;;;;;;;;;;;;;;19.08;79.00;99338.78;8232053;28;19941;-76
2022/10/10 15:51:56;;;;;;;;;;;;;;;18.99;79.16;99335.56;8253333;28;19996;-77
2022/10/10 15:55:57;;;;;;;;;;;;;;;18.82;79.93;99350.28;8250380;28;19934;-77
2022/10/10 15:59:59;;;;;;;;;;;;;;;18.64;81.21;99354.50;8234843;28;20734;-77
2022/10/10 16:04:01;;;;;;;;;;;;;;;18.47;82.40;99357.72;8231403;28;20363;-76
2022/10/10 16:08:03;;;;;;;;;;;;;;;18.35;83.16;99363.44;8221094;28;19940;-78
2022/10/10 16:12:05;;;;;;;;;;;;;;;18.22;84.11;99364.78;8250214;28;19929;-77
2022/10/10 16:16:09;;;;;;;;;;;;;;;18.07;84.99;99369.66;8239367;28;19934;-78
2022/10/10 16:20:10;;;;;;;;;;;;;;;17.92;85.21;99359.69;8216379;28;19933;-78
2022/10/10 16:24:11;;;;;;;;;;;;;;;17.84;85.59;99368.78;8255374;28;19973;-78
2022/10/10 16:28:13;;;;;;;;;;;;;;;17.70;85.97;99370.09;8237193;28;19934;-78
2022/10/10 16:32:14;;;;;;;;;;;;;;;17.54;86.56;99376.72;8230735;28;20004;-77
2022/10/10 16:36:20;;;;;;;;;;;;;;;17.44;87.03;99376.19;8267449;28;19933;-78
2022/10/10 16:40:22;;;;;;;;;;;;;;;17.32;87.79;99381.81;8289200;28;20021;-77
2022/10/10 16:44:23;;;;;;;;;;;;;;;17.19;88.43;99385.72;8294557;28;19933;-77
2022/10/10 16:48:25;;;;;;;;;;;;;;;17.06;88.79;99398.38;8273458;28;19937;-77
2022/10/10 16:52:26;;;;;;;;;;;;;;;16.95;89.46;99405.72;8298386;28;19992;-77
2022/10/10 16:56:28;;;;;;;;;;;;;;;16.86;90.11;99417.31;8296344;28;19934;-77
2022/10/10 17:00:29;;;;;;;;;;;;;;;16.82;90.21;99433.19;8284585;28;19929;-77
2022/10/10 17:04:31;;;;;;;;;;;;;;;16.69;90.67;99430.06;8300577;28;19959;-76
2022/10/10 17:08:33;;;;;;;;;;;;;;;16.61;90.84;99434.66;8296192;28;19929;-76
2022/10/10 17:12:34;;;;;;;;;;;;;;;16.56;90.98;99441.78;8299567;28;19929;-76
2022/10/10 17:16:35;;;;;;;;;;;;;;;16.52;91.29;99453.25;8292247;28;19929;-77
2022/10/10 17:20:57;;;;;;;;;;;;;;;16.45;91.36;99456.94;8299802;28;19928;-76
2022/10/10 17:24:58;;;;;;;;;;;;;;;16.41;91.25;99474.50;8269717;28;19930;-77
2022/10/10 17:28:59;;;;;;;;;;;;;;;16.43;89.33;99482.34;8277712;28;20003;-77
2022/10/10 17:33:00;;;;;;;;;;;;;;;16.54;88.02;99485.53;8267224;28;19940;-77
2022/10/10 17:37:02;;;;;;;;;;;;;;;16.58;87.61;99495.91;8241968;28;19962;-77
2022/10/10 17:41:04;;;;;;;;;;;;;;;16.67;85.37;99505.28;8249521;28;19989;-77
2022/10/10 17:45:06;;;;;;;;;;;;;;;16.69;84.92;99515.72;8229943;28;19930;-77
2022/10/10 17:49:08;;;;;;;;;;;;;;;16.60;85.49;99515.06;8244157;28;19942;-76
2022/10/10 17:53:10;;;;;;;;;;;;;;;16.53;85.97;99520.53;8218831;28;19934;-77
2022/10/10 17:57:11;;;;;;;;;;;;;;;16.41;85.87;99529.56;8233142;28;19937;-76
2022/10/10 18:01:17;;;;;;;;;;;;;;;16.27;86.69;99531.66;8249213;28;19988;-76
2022/10/10 18:05:18;;;;;;;;;;;;;;;16.16;87.06;99545.03;8252487;28;19934;-77
2022/10/10 18:09:19;;;;;;;;;;;;;;;16.00;87.96;99548.94;8235573;28;19996;-77
2022/10/10 18:13:21;;;;;;;;;;;;;;;15.83;88.36;99554.56;8251719;28;19934;-77
2022/10/10 18:17:22;;;;;;;;;;;;;;;15.66;88.36;99568.03;8214541;28;20383;-77
2022/10/10 18:21:23;;;;;;;;;;;;;;;15.57;88.62;99573.41;8251932;28;19934;-77
2022/10/10 18:25:26;;;;;;;;;;;;;;;15.53;88.57;99569.16;8221885;28;20454;-77
2022/10/10 18:29:27;;;;;;;;;;;;;;;15.52;88.70;99569.19;8255004;28;19930;-77
2022/10/10 18:33:28;;;;;;;;;;;;;;;15.49;88.56;99579.72;8254517;28;20005;-77
2022/10/10 18:37:30;;;;;;;;;;;;;;;15.37;88.81;99586.06;8280341;28;20016;-77
2022/10/10 18:41:32;;;;;;;;;;;;;;;15.20;89.42;99586.41;8282480;28;19952;-77
2022/10/10 18:45:34;;;;;;;;;;;;;;;15.11;89.93;99590.09;8279234;28;20044;-77
2022/10/10 18:49:36;;;;;;;;;;;;;;;14.96;90.23;99595.59;8259709;28;19930;-76
2022/10/10 18:53:38;;;;;;;;;;;;;;;14.85;90.82;99602.78;8288558;28;19991;-77
2022/10/10 18:57:40;;;;;;;;;;;;;;;14.75;91.37;99609.06;8290946;28;19933;-76
2022/10/10 19:01:44;;;;;;;;;;;;;;;14.64;91.40;99605.78;8287831;28;19960;-77
2022/10/10 19:05:46;;;;;;;;;;;;;;;14.53;91.51;99603.34;8263124;28;19997;-76
2022/10/10 19:09:47;;;;;;;;;;;;;;;14.41;92.50;99613.97;8304944;28;19933;-77
2022/10/10 19:13:49;;;;;;;;;;;;;;;14.37;92.64;99613.19;8262792;28;19980;-77
2022/10/10 19:17:50;;;;;;;;;;;;;;;14.31;92.78;99622.84;8283518;28;19937;-77
2022/10/10 19:21:52;;;;;;;;;;;;;;;14.23;92.74;99627.34;8285762;28;19930;-77
2022/10/10 19:25:53;;;;;;;;;;;;;;;14.14;93.35;99626.56;8304010;28;19992;-77
2022/10/10 19:29:54;;;;;;;;;;;;;;;14.04;93.61;99624.13;8273220;28;19929;-77
2022/10/10 19:33:57;;;;;;;;;;;;;;;13.95;93.37;99624.25;8259154;28;19940;-77
2022/10/10 19:37:58;;;;;;;;;;;;;;;13.87;94.17;99632.22;8254744;28;19929;-77
2022/10/10 19:41:59;;;;;;;;;;;;;;;13.83;93.89;99638.38;8240508;28;19992;-77
2022/10/10 19:46:05;;;;;;;;;;;;;;;13.77;94.76;99646.25;8242268;28;20709;-76
2022/10/10 19:50:07;;;;;;;;;;;;;;;13.72;94.48;99654.16;8243888;28;19930;-76
2022/10/10 19:54:09;;;;;;;;;;;;;;;13.68;95.19;99662.06;8263330;28;19938;-77
2022/10/10 19:58:10;;;;;;;;;;;;;;;13.64;95.05;99669.03;8267970;28;19937;-77
2022/10/10 20:02:11;;;;;;;;;;;;;;;13.59;95.45;99668.22;8264522;28;19933;-77
2022/10/10 20:06:14;;;;;;;;;;;;;;;13.57;95.70;99672.59;8261608;28;19952;-77
2022/10/10 20:10:16;;;;;;;;;;;;;;;13.56;96.54;99683.94;8265112;28;20315;-77
2022/10/10 20:14:17;;;;;;;;;;;;;;;13.59;97.26;99686.50;8249592;28;19991;-76
2022/10/10 20:18:20;;;;;;;;;;;;;;;13.66;97.52;99684.69;8248119;28;19992;-77
2022/10/10 20:22:21;;;;;;;;;;;;;;;13.73;98.00;99697.63;8275427;28;19939;-77
2022/10/10 20:26:25;;;;;;;;;;;;;;;13.85;98.43;99707.94;8277442;28;19995;-77
2022/10/10 20:30:26;;;;;;;;;;;;;;;13.87;97.87;99710.53;8282271;28;19984;-77
2022/10/10 20:34:28;;;;;;;;;;;;;;;13.91;98.70;99709.59;8271719;28;19989;-77
2022/10/10 20:38:29;;;;;;;;;;;;;;;13.95;98.82;99710.41;8254839;28;19987;-77
2022/10/10 20:42:30;;;;;;;;;;;;;;;14.04;99.34;99720.75;8290237;28;19932;-77
2022/10/10 20:46:36;;;;;;;;;;;;;;;14.14;98.82;99720.59;8281299;28;19930;-77
2022/10/10 20:50:38;;;;;;;;;;;;;;;14.24;98.33;99728.31;8276395;28;19984;-77
2022/10/10 20:54:39;;;;;;;;;;;;;;;14.27;97.96;99729.13;8272261;28;19929;-76
2022/10/10 20:58:41;;;;;;;;;;;;;;;14.26;97.84;99734.38;8285062;28;19995;-76
2022/10/10 21:02:42;;;;;;;;;;;;;;;14.23;97.88;99737.91;8283387;28;19934;-76
2022/10/10 21:06:44;;;;;;;;;;;;;;;14.28;97.86;99740.44;8283896;28;19929;-77
2022/10/10 21:10:46;;;;;;;;;;;;;;;14.25;98.10;99738.72;8277652;28;20673;-77
2022/10/10 21:14:47;;;;;;;;;;;;;;;14.27;98.37;99746.53;8271558;28;19984;-77